createdAt,value
2023-04-11T00:02:43.705Z,9.07
2023-04-11T00:05:32.708Z,12.65
2023-04-11T00:08:17.674Z,14.17
2023-04-11T00:11:03.003Z,10.75
2023-04-11T00:13:48.819Z,9.48
2023-04-11T00:16:34.017Z,12.23
2023-04-11T00:19:23.611Z,14.27
2023-04-11T00:22:09.405Z,12.98
2023-04-11T00:24:54.451Z,14.85
2023-04-11T00:27:39.770Z,10.70
2023-04-11T00:30:25.202Z,14.88
2023-04-11T00:33:10.615Z,9.15
2023-04-11T00:35:56.059Z,9.93
2023-04-11T00:38:41.425Z,18.70
2023-04-11T00:41:27.499Z,14.52
2023-04-11T00:44:14.073Z,11.13
2023-04-11T00:47:01.428Z,11.00
2023-04-11T00:49:46.699Z,17.48
2023-04-11T00:52:32.335Z,12.77
2023-04-11T00:55:17.671Z,15.30
2023-04-11T00:58:03.757Z,15.23
2023-04-11T01:00:50.074Z,10.93
2023-04-11T01:03:39.074Z,12.10
2023-04-11T01:09:09.739Z,16.15
2023-04-11T01:11:56.240Z,14.40
2023-04-11T01:14:41.757Z,15.88
2023-04-11T01:17:27.199Z,15.18
2023-04-11T01:20:13.107Z,16.65
2023-04-11T01:23:01.988Z,18.42
2023-04-11T01:25:47.211Z,22.45
2023-04-11T01:28:32.486Z,25.83
2023-04-11T01:31:17.756Z,23.05
2023-04-11T01:34:04.475Z,21.65
2023-04-11T01:36:49.789Z,21.08
2023-04-11T01:39:35.000Z,23.88
2023-04-11T01:42:21.864Z,27.98
2023-04-11T01:45:08.180Z,27.17
2023-04-11T01:47:56.469Z,25.77
2023-04-11T01:50:41.988Z,23.20
2023-04-11T01:53:27.652Z,17.48
2023-04-11T01:56:13.347Z,18.27
2023-04-11T01:58:59.237Z,21.92
2023-04-11T02:01:44.690Z,16.55
2023-04-11T02:04:29.969Z,19.95
2023-04-11T02:07:15.239Z,17.13
2023-04-11T02:10:01.068Z,16.95
2023-04-11T02:12:46.558Z,23.38
2023-04-11T02:15:31.957Z,20.52
2023-04-11T02:18:17.450Z,20.60
2023-04-11T02:21:02.665Z,21.48
2023-04-11T02:23:48.077Z,20.58
2023-04-11T02:26:33.466Z,16.27
2023-04-11T02:29:18.686Z,26.85
2023-04-11T02:32:04.144Z,24.00
2023-04-11T02:34:49.406Z,16.10
2023-04-11T02:37:35.165Z,16.85
2023-04-11T02:40:20.284Z,19.92
2023-04-11T02:43:05.636Z,15.70
2023-04-11T02:45:54.287Z,12.57
2023-04-11T02:48:44.539Z,13.40
2023-04-11T02:51:29.801Z,9.02
2023-04-11T02:54:15.198Z,11.13
2023-04-11T02:57:00.872Z,13.60
2023-04-11T02:59:45.983Z,11.18
2023-04-11T03:02:31.581Z,12.05
2023-04-11T03:05:17.159Z,11.45
2023-04-11T03:08:02.686Z,11.18
2023-04-11T03:10:47.829Z,14.77
2023-04-11T03:13:33.709Z,14.88
2023-04-11T03:16:19.997Z,10.18
2023-04-11T03:19:05.981Z,11.73
2023-04-11T03:21:52.751Z,11.13
2023-04-11T03:24:41.404Z,11.45
2023-04-11T03:27:27.185Z,8.98
2023-04-11T03:30:13.882Z,12.18
2023-04-11T03:33:02.362Z,14.88
2023-04-11T03:35:47.691Z,14.25
2023-04-11T03:38:33.207Z,16.25
2023-04-11T03:41:19.565Z,15.15
2023-04-11T03:44:05.019Z,11.60
2023-04-11T03:46:50.373Z,16.80
2023-04-11T03:49:35.706Z,15.35
2023-04-11T03:52:21.061Z,13.98
2023-04-11T03:55:06.540Z,12.93
2023-04-11T03:57:51.997Z,13.88
2023-04-11T04:00:37.518Z,18.27
2023-04-11T04:03:22.904Z,15.65
2023-04-11T04:06:08.853Z,15.65
2023-04-11T04:08:53.866Z,13.95
2023-04-11T04:11:39.166Z,18.20
2023-04-11T04:14:24.434Z,14.88
2023-04-11T04:17:09.977Z,15.48
2023-04-11T04:19:55.053Z,21.95
2023-04-11T04:22:40.251Z,16.90
2023-04-11T04:25:26.158Z,16.10
2023-04-11T04:28:11.459Z,16.10
2023-04-11T04:30:58.229Z,16.55
2023-04-11T04:33:43.540Z,20.20
2023-04-11T04:36:29.425Z,18.70
2023-04-11T04:39:18.835Z,18.48
2023-04-11T04:42:04.300Z,17.35
2023-04-11T04:44:50.839Z,19.27
2023-04-11T04:47:37.626Z,17.60
2023-04-11T04:50:23.210Z,11.63
2023-04-11T04:53:08.500Z,11.57
2023-04-11T04:55:53.904Z,12.73
2023-04-11T04:58:39.335Z,13.30
2023-04-11T05:01:26.851Z,16.08
2023-04-11T05:04:12.255Z,17.38
2023-04-11T05:06:57.323Z,11.15
2023-04-11T05:09:42.774Z,14.68
2023-04-11T05:12:28.119Z,16.83
2023-04-11T05:15:15.076Z,17.85
2023-04-11T05:18:00.939Z,14.80
2023-04-11T05:20:46.242Z,18.02
2023-04-11T05:23:31.289Z,18.02
2023-04-11T05:26:16.577Z,17.92
2023-04-11T05:29:02.010Z,16.92
2023-04-11T05:31:47.014Z,13.80
2023-04-11T05:34:33.373Z,15.13
2023-04-11T05:37:18.545Z,19.30
2023-04-11T05:40:04.065Z,13.07
2023-04-11T05:42:49.199Z,15.27
2023-04-11T05:45:34.797Z,12.85
2023-04-11T05:48:20.151Z,18.20
2023-04-11T05:51:06.195Z,21.83
2023-04-11T05:53:51.387Z,17.38
2023-04-11T05:56:39.754Z,14.40
2023-04-11T05:59:27.680Z,14.52
2023-04-11T06:02:14.035Z,17.02
2023-04-11T06:04:59.412Z,14.85
2023-04-11T06:07:45.368Z,15.10
2023-04-11T06:10:31.247Z,19.08
2023-04-11T06:13:16.323Z,13.80
2023-04-11T06:16:02.224Z,11.48
2023-04-11T06:18:47.651Z,16.55
2023-04-11T06:21:33.029Z,12.68
2023-04-11T06:24:20.683Z,15.30
2023-04-11T06:27:06.638Z,12.43
2023-04-11T06:29:51.940Z,10.35
2023-04-11T06:32:37.255Z,13.38
2023-04-11T06:35:25.071Z,14.55
2023-04-11T06:38:10.169Z,14.95
2023-04-11T06:40:56.471Z,16.77
2023-04-11T06:43:42.196Z,13.52
2023-04-11T06:46:27.344Z,9.98
2023-04-11T06:49:12.536Z,14.63
2023-04-11T06:51:57.712Z,12.80
2023-04-11T06:54:42.896Z,11.25
2023-04-11T06:57:28.328Z,11.02
2023-04-11T07:00:13.801Z,9.43
2023-04-11T07:02:59.537Z,8.30
2023-04-11T07:05:45.199Z,10.15
2023-04-11T07:08:30.483Z,9.77
2023-04-11T07:11:15.823Z,7.15
2023-04-11T07:14:01.906Z,9.23
2023-04-11T07:16:47.069Z,9.63
2023-04-11T07:19:32.524Z,7.15
2023-04-11T07:22:17.826Z,8.20
2023-04-11T07:25:05.317Z,10.57
2023-04-11T07:27:51.501Z,10.00
2023-04-11T07:30:37.308Z,9.10
2023-04-11T07:33:22.310Z,7.57
2023-04-11T07:36:08.300Z,8.27
2023-04-11T07:38:54.152Z,7.93
2023-04-11T07:41:39.508Z,7.68
2023-04-11T07:44:25.101Z,7.28
2023-04-11T07:47:10.493Z,10.32
2023-04-11T07:49:56.537Z,8.65
2023-04-11T07:52:41.747Z,7.57
2023-04-11T07:55:27.309Z,7.93
2023-04-11T07:58:12.320Z,8.85
2023-04-11T08:00:58.761Z,5.85
2023-04-11T08:03:44.020Z,7.88
2023-04-11T08:06:29.418Z,10.25
2023-04-11T08:09:14.490Z,9.70
2023-04-11T08:12:01.788Z,9.20
2023-04-11T08:14:46.852Z,7.38
2023-04-11T08:17:37.968Z,10.75
2023-04-11T08:20:24.350Z,6.88
2023-04-11T08:23:10.588Z,6.28
2023-04-11T08:25:56.862Z,5.35
2023-04-11T08:28:43.340Z,8.77
2023-04-11T08:31:29.080Z,5.72
2023-04-11T08:34:14.292Z,6.25
2023-04-11T08:36:59.554Z,4.57
2023-04-11T08:39:44.900Z,9.20
2023-04-11T08:42:31.195Z,6.57
2023-04-11T08:45:16.397Z,5.00
2023-04-11T08:48:01.711Z,4.88
2023-04-11T08:50:47.085Z,5.85
2023-04-11T08:53:36.455Z,4.53
2023-04-11T08:56:21.686Z,3.50
2023-04-11T08:59:07.109Z,6.15
2023-04-11T09:01:52.426Z,5.25
2023-04-11T09:04:42.269Z,5.57
2023-04-11T09:07:29.059Z,6.40
2023-04-11T09:10:21.531Z,8.82
2023-04-11T09:13:19.843Z,6.18
2023-04-11T09:16:10.666Z,4.88
2023-04-11T09:18:56.120Z,5.30
2023-04-11T09:21:52.931Z,5.38
2023-04-11T09:24:38.370Z,5.05
2023-04-11T09:27:26.229Z,6.63
2023-04-11T09:30:22.718Z,6.20
2023-04-11T09:33:30.009Z,4.60
2023-04-11T09:36:21.747Z,6.13
2023-04-11T09:39:20.435Z,6.78
2023-04-11T09:45:21.573Z,4.85
2023-04-11T09:48:07.262Z,7.18
2023-04-11T09:50:53.517Z,4.70
2023-04-11T09:53:38.489Z,4.47
2023-04-11T09:56:26.769Z,4.55
2023-04-11T09:59:14.389Z,4.88
2023-04-11T10:01:59.642Z,4.30
2023-04-11T10:04:45.119Z,4.55
2023-04-11T10:07:30.326Z,5.72
2023-04-11T10:10:17.855Z,6.90
2023-04-11T10:13:03.584Z,26.50
2023-04-11T10:16:12.456Z,19.08
2023-04-11T10:18:57.826Z,7.95
2023-04-11T10:21:43.145Z,5.45
2023-04-11T10:24:28.884Z,4.45
2023-04-11T10:27:13.983Z,4.28
2023-04-11T10:29:59.292Z,5.47
2023-04-11T10:33:18.008Z,4.53
2023-04-11T10:38:55.740Z,6.55
2023-04-11T10:41:41.189Z,3.08
2023-04-11T10:44:26.290Z,4.68
2023-04-11T10:47:17.741Z,3.83
2023-04-11T10:50:03.663Z,7.35
2023-04-11T10:52:48.873Z,4.97
2023-04-11T10:55:54.558Z,5.57
2023-04-11T10:58:40.334Z,6.68
2023-04-11T11:01:37.104Z,3.30
2023-04-11T11:04:39.281Z,4.18
2023-04-11T11:07:24.872Z,3.22
2023-04-11T11:10:10.407Z,3.88
2023-04-11T11:12:56.137Z,3.63
2023-04-11T11:15:47.631Z,4.95
2023-04-11T11:18:32.960Z,5.65
2023-04-11T11:21:26.751Z,4.47
2023-04-11T11:24:13.370Z,6.38
2023-04-11T11:26:59.209Z,4.65
2023-04-11T11:29:44.757Z,5.60
2023-04-11T11:32:32.708Z,5.03
2023-04-11T11:35:18.681Z,5.13
2023-04-11T11:38:04.169Z,4.82
2023-04-11T11:40:49.703Z,3.90
2023-04-11T11:43:36.870Z,7.20
2023-04-11T11:46:22.012Z,4.05
2023-04-11T11:49:08.483Z,5.97
2023-04-11T11:51:53.684Z,5.15
2023-04-11T11:54:47.149Z,5.43
2023-04-11T11:57:33.583Z,5.05
2023-04-11T12:00:29.517Z,4.47
2023-04-11T12:03:18.409Z,5.65
2023-04-11T12:08:52.028Z,3.55
2023-04-11T12:11:42.142Z,5.70
2023-04-11T12:14:27.733Z,4.15
2023-04-11T12:17:12.869Z,6.13
2023-04-11T12:19:58.153Z,5.80
2023-04-11T12:22:43.593Z,5.15
2023-04-11T12:25:28.690Z,5.57
2023-04-11T12:28:14.426Z,6.00
2023-04-11T12:31:00.066Z,4.97
2023-04-11T12:33:45.341Z,5.95
2023-04-11T12:39:15.876Z,4.72
2023-04-11T12:42:01.348Z,7.72
2023-04-11T12:44:47.458Z,5.43
2023-04-11T12:47:32.735Z,10.90
2023-04-11T12:50:18.464Z,4.65
2023-04-11T12:53:03.783Z,5.28
2023-04-11T12:55:49.267Z,4.15
2023-04-11T12:58:34.827Z,5.30
2023-04-11T13:01:20.246Z,8.23
2023-04-11T13:04:05.897Z,7.55
2023-04-11T13:06:52.456Z,7.60
2023-04-11T13:09:37.445Z,7.05
2023-04-11T13:12:22.703Z,4.70
2023-04-11T13:15:09.871Z,3.17
2023-04-11T13:17:55.455Z,6.20
2023-04-11T13:20:40.976Z,4.55
2023-04-11T13:23:26.119Z,4.22
2023-04-11T13:26:11.408Z,6.07
2023-04-11T13:28:56.813Z,3.50
2023-04-11T13:31:42.167Z,6.78
2023-04-11T13:34:27.284Z,3.85
2023-04-11T13:37:12.694Z,4.10
2023-04-11T13:39:57.904Z,2.80
2023-04-11T13:42:43.253Z,4.50
2023-04-11T13:45:28.634Z,3.03
2023-04-11T13:48:13.866Z,4.13
2023-04-11T13:51:00.593Z,4.88
2023-04-11T13:53:45.893Z,3.38
2023-04-11T13:56:31.366Z,3.22
2023-04-11T13:59:16.684Z,3.85
2023-04-11T14:02:02.673Z,3.10
2023-04-11T14:04:47.925Z,4.65
2023-04-11T14:07:33.185Z,4.38
2023-04-11T14:10:18.640Z,4.95
2023-04-11T14:13:05.472Z,3.60
2023-04-11T14:16:04.944Z,2.70
2023-04-11T14:18:52.832Z,3.67
2023-04-11T14:21:38.126Z,6.22
2023-04-11T14:24:23.461Z,5.45
2023-04-11T14:27:09.031Z,5.13
2023-04-11T14:29:54.078Z,4.47
2023-04-11T14:32:40.138Z,5.20
2023-04-11T14:35:25.590Z,5.50
2023-04-11T14:38:10.914Z,8.15
2023-04-11T14:40:56.745Z,3.60
2023-04-11T14:43:41.737Z,2.80
2023-04-11T14:46:27.892Z,4.15
2023-04-11T14:49:13.128Z,4.28
2023-04-11T14:51:58.558Z,3.65
2023-04-11T14:54:43.894Z,3.67
2023-04-11T14:57:51.184Z,4.72
2023-04-11T15:00:36.687Z,7.93
2023-04-11T15:03:21.974Z,4.05
2023-04-11T15:06:07.612Z,3.92
2023-04-11T15:08:52.980Z,7.63
2023-04-11T15:11:38.456Z,7.78
2023-04-11T15:14:29.406Z,7.18
2023-04-11T15:17:14.637Z,7.97
2023-04-11T15:20:00.003Z,7.60
2023-04-11T15:22:46.579Z,4.68
2023-04-11T15:25:31.606Z,6.00
2023-04-11T15:28:16.842Z,6.70
2023-04-11T15:31:04.356Z,4.22
2023-04-11T15:33:49.502Z,5.05
2023-04-11T15:36:38.246Z,6.05
2023-04-11T15:39:23.804Z,3.60
2023-04-11T15:42:09.201Z,4.68
2023-04-11T15:44:54.444Z,6.72
2023-04-11T15:47:39.382Z,6.45
2023-04-11T15:50:24.617Z,5.07
2023-04-11T15:53:09.991Z,3.92
2023-04-11T15:55:54.939Z,4.20
2023-04-11T15:58:40.361Z,3.85
2023-04-11T16:01:25.847Z,9.13
2023-04-11T16:04:11.430Z,13.75
2023-04-11T16:06:57.141Z,8.88
2023-04-11T16:09:42.714Z,9.73
2023-04-11T16:12:27.935Z,21.90
2023-04-11T16:15:13.125Z,10.82
2023-04-11T16:17:58.332Z,7.43
2023-04-11T16:20:43.420Z,18.63
2023-04-11T16:23:28.670Z,13.55
2023-04-11T16:26:14.042Z,7.82
2023-04-11T16:28:59.415Z,5.53
2023-04-11T16:31:44.847Z,6.47
2023-04-11T16:34:30.360Z,6.88
2023-04-11T16:37:16.088Z,5.28
2023-04-11T16:40:01.545Z,6.43
2023-04-11T16:42:46.844Z,4.70
2023-04-11T16:45:33.161Z,9.48
2023-04-11T16:48:18.937Z,5.50
2023-04-11T16:51:04.260Z,4.97
2023-04-11T16:53:50.322Z,3.72
2023-04-11T16:56:38.347Z,4.10
2023-04-11T16:59:23.656Z,5.78
2023-04-11T17:02:09.153Z,5.93
2023-04-11T17:04:54.224Z,3.00
2023-04-11T17:07:39.347Z,4.53
2023-04-11T17:10:24.877Z,11.13
2023-04-11T17:13:11.741Z,9.82
2023-04-11T17:15:56.813Z,3.92
2023-04-11T17:18:41.907Z,8.65
2023-04-11T17:21:27.518Z,18.33
2023-04-11T17:24:12.545Z,12.57
2023-04-11T17:26:58.109Z,17.50
2023-04-11T17:29:43.591Z,11.70
2023-04-11T17:32:28.853Z,4.90
2023-04-11T17:35:14.588Z,5.18
2023-04-11T17:38:00.719Z,4.90
2023-04-11T17:40:46.451Z,6.78
2023-04-11T17:43:32.124Z,4.07
2023-04-11T17:46:17.740Z,4.65
2023-04-11T17:49:03.217Z,3.53
2023-04-11T17:51:56.572Z,5.28
2023-04-11T17:54:43.779Z,7.18
2023-04-11T17:57:29.083Z,3.30
2023-04-11T18:00:26.291Z,3.70
2023-04-11T18:03:11.502Z,4.80
2023-04-11T18:05:57.364Z,4.90
2023-04-11T18:08:50.988Z,8.25
2023-04-11T18:11:37.072Z,15.80
2023-04-11T18:14:22.274Z,52.33
2023-04-11T18:17:07.409Z,67.97
2023-04-11T18:19:52.737Z,13.70
2023-04-11T18:22:40.333Z,3.03
2023-04-11T18:25:25.774Z,12.20
2023-04-11T18:28:11.242Z,3.30
2023-04-11T18:30:56.822Z,9.05
2023-04-11T18:33:45.302Z,9.02
2023-04-11T18:36:31.444Z,11.43
2023-04-11T18:39:17.643Z,10.60
2023-04-11T18:42:04.012Z,10.32
2023-04-11T18:44:49.643Z,10.48
2023-04-11T18:47:35.567Z,12.43
2023-04-11T18:50:22.880Z,17.35
2023-04-11T18:53:11.242Z,10.60
2023-04-11T18:55:58.216Z,11.00
2023-04-11T18:58:45.442Z,10.45
2023-04-11T19:01:31.980Z,6.75
2023-04-11T19:04:18.129Z,5.07
2023-04-11T19:07:03.902Z,6.10
2023-04-11T19:09:50.168Z,11.43
2023-04-11T19:12:37.301Z,11.20
2023-04-11T19:15:23.021Z,5.05
2023-04-11T19:18:09.110Z,7.45
2023-04-11T19:20:54.734Z,10.65
2023-04-11T19:23:39.994Z,10.38
2023-04-11T19:26:28.733Z,10.75
2023-04-11T19:29:13.877Z,12.13
2023-04-11T19:31:59.033Z,15.07
2023-04-11T19:34:44.765Z,17.20
2023-04-11T19:37:30.738Z,7.78
2023-04-11T19:40:18.588Z,11.70
2023-04-11T19:43:04.494Z,10.60
2023-04-11T19:45:49.947Z,15.23
2023-04-11T19:48:35.828Z,10.60
2023-04-11T19:51:21.621Z,14.35
2023-04-11T19:54:07.392Z,14.10
2023-04-11T19:56:53.116Z,13.38
2023-04-11T19:59:38.173Z,11.40
2023-04-11T20:02:23.791Z,10.82
2023-04-11T20:05:09.639Z,9.93
2023-04-11T20:07:54.676Z,9.90
2023-04-11T20:10:41.000Z,11.85
2023-04-11T20:13:26.342Z,8.75
2023-04-11T20:16:11.772Z,12.50
2023-04-11T20:18:57.007Z,13.00
2023-04-11T20:21:42.199Z,12.73
2023-04-11T20:24:27.817Z,9.88
2023-04-11T20:27:13.423Z,6.03
2023-04-11T20:29:58.842Z,7.00
2023-04-11T20:32:44.550Z,3.92
2023-04-11T20:35:30.116Z,4.35
2023-04-11T20:38:15.388Z,7.47
2023-04-11T20:41:03.990Z,2.78
2023-04-11T20:43:49.395Z,4.10
2023-04-11T20:46:40.006Z,4.65
2023-04-11T20:49:28.153Z,3.60
2023-04-11T20:52:13.591Z,3.00
2023-04-11T20:54:59.603Z,1.55
2023-04-11T20:57:45.142Z,2.22
2023-04-11T21:00:30.227Z,2.50
2023-04-11T21:03:15.858Z,3.22
2023-04-11T21:06:04.307Z,4.85
2023-04-11T21:08:49.574Z,2.40
2023-04-11T21:11:35.080Z,2.55
2023-04-11T21:14:20.774Z,4.05
2023-04-11T21:17:07.487Z,1.98
2023-04-11T21:19:52.618Z,4.35
2023-04-11T21:22:38.230Z,1.85
2023-04-11T21:25:23.746Z,2.20
2023-04-11T21:28:09.271Z,1.67
2023-04-11T21:30:54.692Z,1.58
2023-04-11T21:33:40.010Z,4.50
2023-04-11T21:36:25.291Z,2.72
2023-04-11T21:39:10.736Z,10.15
2023-04-11T21:41:56.682Z,1.52
2023-04-11T21:44:41.780Z,2.03
2023-04-11T21:47:27.281Z,3.25
2023-04-11T21:50:12.666Z,0.88
2023-04-11T21:52:58.190Z,1.77
2023-04-11T21:55:46.780Z,1.27
2023-04-11T21:58:32.365Z,0.70
2023-04-11T22:01:20.670Z,0.85
2023-04-11T22:04:06.179Z,2.80
2023-04-11T22:06:51.599Z,1.10
2023-04-11T22:09:38.169Z,0.68
2023-04-11T22:12:23.336Z,1.10
2023-04-11T22:15:09.796Z,2.78
2023-04-11T22:17:56.555Z,3.78
2023-04-11T22:20:44.149Z,6.63
2023-04-11T22:23:30.013Z,2.03
2023-04-11T22:26:15.042Z,1.25
2023-04-11T22:29:05.174Z,2.45
2023-04-11T22:31:50.816Z,3.55
2023-04-11T22:34:36.491Z,1.38
2023-04-11T22:37:21.606Z,1.17
2023-04-11T22:40:08.971Z,2.42
2023-04-11T22:42:54.405Z,3.25
2023-04-11T22:45:40.072Z,1.30
2023-04-11T22:48:30.066Z,3.50
2023-04-11T22:51:16.314Z,2.50
2023-04-11T22:54:02.371Z,3.60
2023-04-11T22:56:55.081Z,0.85
2023-04-11T22:59:40.041Z,0.73
2023-04-11T23:02:27.519Z,1.15
2023-04-11T23:05:12.793Z,1.95
2023-04-11T23:07:58.250Z,0.93
2023-04-11T23:10:43.569Z,1.08
2023-04-11T23:13:29.932Z,1.05
2023-04-11T23:16:15.192Z,0.75
2023-04-11T23:19:01.214Z,0.82
2023-04-11T23:21:46.349Z,0.80
2023-04-11T23:24:31.652Z,1.58
2023-04-11T23:27:17.126Z,1.00
2023-04-11T23:30:02.378Z,0.90
2023-04-11T23:32:48.392Z,1.08
2023-04-11T23:35:34.499Z,4.90
2023-04-11T23:38:20.053Z,1.42
2023-04-11T23:41:05.999Z,1.40
2023-04-11T23:43:51.272Z,0.95
2023-04-11T23:46:37.094Z,0.50
2023-04-11T23:49:22.633Z,0.60
2023-04-11T23:52:08.138Z,0.60
2023-04-11T23:54:53.434Z,0.90
2023-04-11T23:57:38.655Z,0.90
